FLT555 VNKT-VNLK
Flight info
| Callsign | FLT555 |
|---|---|
| Flight time | 0h 28m |
| Altitude | 150 |
| Route | KIMTI |
| Aircraft | C408/L-VGD/C |
Departure
| Time | 2026-04-18 01:59 |
|---|---|
| Airport | Tribhuvan International Airport (VNKT) |
Arrival
| Time | 2026-04-18 02:27 |
|---|---|
| Airport | Tenzing-Hillary Airport (VNLK) |
| Time | Latitude | Longitude | Altitude | Speed | Heading |
|---|---|---|---|---|---|
| 2026-04-18 01:36 | 27.70179 | 85.35947 | 4364 ft | 0 kts | 293° |
| 2026-04-18 01:53 | 27.70173 | 85.35962 | 4366 ft | 2 kts | 293° |
| 2026-04-18 01:53 | 27.70175 | 85.35980 | 4376 ft | 2 kts | 238° |
| 2026-04-18 01:54 | 27.70183 | 85.35988 | 4376 ft | 0 kts | 207° |
| 2026-04-18 01:54 | 27.70162 | 85.35978 | 4368 ft | 13 kts | 188° |
| 2026-04-18 01:54 | 27.70071 | 85.35977 | 4373 ft | 12 kts | 181° |
| 2026-04-18 01:54 | 27.69969 | 85.35939 | 4370 ft | 18 kts | 201° |
| 2026-04-18 01:55 | 27.69835 | 85.35875 | 4367 ft | 23 kts | 202° |
| 2026-04-18 01:55 | 27.69673 | 85.35802 | 4363 ft | 27 kts | 201° |
| 2026-04-18 01:55 | 27.69488 | 85.35717 | 4358 ft | 30 kts | 202° |
| 2026-04-18 01:55 | 27.69280 | 85.35622 | 4350 ft | 34 kts | 202° |
| 2026-04-18 01:56 | 27.69142 | 85.35558 | 4344 ft | 12 kts | 202° |
| 2026-04-18 01:56 | 27.69096 | 85.35552 | 4343 ft | 8 kts | 155° |
| 2026-04-18 01:56 | 27.69059 | 85.35615 | 4343 ft | 8 kts | 93° |
| 2026-04-18 01:56 | 27.69091 | 85.35656 | 4347 ft | 0 kts | 22° |
| 2026-04-18 01:57 | 27.69140 | 85.35679 | 4345 ft | 28 kts | 22° |
| 2026-04-18 01:58 | 27.69489 | 85.35835 | 4356 ft | 77 kts | 21° |
| 2026-04-18 01:58 | 27.70114 | 85.36116 | 4365 ft | 115 kts | 21° |
| 2026-04-18 01:58 | 27.70903 | 85.36473 | 4628 ft | 125 kts | 20° |
| 2026-04-18 01:58 | 27.71792 | 85.36859 | 4777 ft | 140 kts | 17° |
| 2026-04-18 01:59 | 27.72631 | 85.37372 | 5161 ft | 136 kts | 39° |
| 2026-04-18 01:59 | 27.73298 | 85.38107 | 5517 ft | 133 kts | 53° |
| 2026-04-18 01:59 | 27.73758 | 85.38988 | 5886 ft | 132 kts | 66° |
| 2026-04-18 01:59 | 27.74007 | 85.39982 | 6268 ft | 131 kts | 80° |
| 2026-04-18 02:00 | 27.74036 | 85.41008 | 6648 ft | 129 kts | 90° |
| 2026-04-18 02:00 | 27.74039 | 85.42007 | 7004 ft | 125 kts | 90° |
| 2026-04-18 02:00 | 27.74020 | 85.42977 | 7314 ft | 121 kts | 97° |
| 2026-04-18 02:00 | 27.73836 | 85.43892 | 7665 ft | 117 kts | 107° |
| 2026-04-18 02:01 | 27.73515 | 85.44718 | 8034 ft | 113 kts | 118° |
| 2026-04-18 02:01 | 27.73090 | 85.45424 | 8385 ft | 107 kts | 129° |
| 2026-04-18 02:01 | 27.72587 | 85.46011 | 8731 ft | 100 kts | 139° |
| 2026-04-18 02:01 | 27.72049 | 85.46463 | 9051 ft | 93 kts | 147° |
| 2026-04-18 02:02 | 27.71448 | 85.46805 | 9290 ft | 100 kts | 156° |
| 2026-04-18 02:02 | 27.70790 | 85.47114 | 9563 ft | 104 kts | 155° |
| 2026-04-18 02:02 | 27.70086 | 85.47444 | 9872 ft | 115 kts | 156° |
| 2026-04-18 02:02 | 27.69302 | 85.47813 | 10170 ft | 129 kts | 160° |
| 2026-04-18 02:03 | 27.68419 | 85.48165 | 10458 ft | 141 kts | 158° |
| 2026-04-18 02:03 | 27.67498 | 85.48675 | 10752 ft | 154 kts | 154° |
| 2026-04-18 02:03 | 27.66568 | 85.49329 | 11040 ft | 166 kts | 147° |
| 2026-04-18 02:03 | 27.65636 | 85.50160 | 11319 ft | 174 kts | 140° |
| 2026-04-18 02:04 | 27.64765 | 85.51156 | 11592 ft | 182 kts | 133° |
| 2026-04-18 02:04 | 27.63975 | 85.52321 | 11854 ft | 191 kts | 124° |
| 2026-04-18 02:04 | 27.63312 | 85.53621 | 12117 ft | 196 kts | 116° |
| 2026-04-18 02:04 | 27.62793 | 85.55059 | 12381 ft | 198 kts | 107° |
| 2026-04-18 02:05 | 27.62399 | 85.56562 | 12637 ft | 201 kts | 106° |
| 2026-04-18 02:05 | 27.61986 | 85.58083 | 12889 ft | 204 kts | 106° |
| 2026-04-18 02:05 | 27.61575 | 85.59620 | 13147 ft | 205 kts | 106° |
| 2026-04-18 02:05 | 27.61164 | 85.61167 | 13398 ft | 207 kts | 106° |
| 2026-04-18 02:06 | 27.60746 | 85.62735 | 13655 ft | 209 kts | 106° |
| 2026-04-18 02:06 | 27.60329 | 85.64298 | 13903 ft | 211 kts | 106° |
| 2026-04-18 02:06 | 27.59906 | 85.65884 | 14130 ft | 212 kts | 106° |
| 2026-04-18 02:06 | 27.59479 | 85.67480 | 14361 ft | 213 kts | 106° |
| 2026-04-18 02:07 | 27.59008 | 85.69070 | 14587 ft | 214 kts | 110° |
| 2026-04-18 02:07 | 27.58430 | 85.70622 | 14812 ft | 215 kts | 115° |
| 2026-04-18 02:07 | 27.57765 | 85.72135 | 15049 ft | 216 kts | 117° |
| 2026-04-18 02:07 | 27.57078 | 85.73694 | 15088 ft | 227 kts | 116° |
| 2026-04-18 02:08 | 27.56366 | 85.75316 | 15091 ft | 233 kts | 117° |
| 2026-04-18 02:08 | 27.55645 | 85.76943 | 15088 ft | 236 kts | 116° |
| 2026-04-18 02:08 | 27.54917 | 85.78613 | 15095 ft | 238 kts | 116° |
| 2026-04-18 02:08 | 27.54177 | 85.80294 | 15092 ft | 240 kts | 117° |
| 2026-04-18 02:09 | 27.53431 | 85.81983 | 15083 ft | 242 kts | 117° |
| 2026-04-18 02:09 | 27.52638 | 85.83649 | 15056 ft | 239 kts | 121° |
| 2026-04-18 02:09 | 27.52034 | 85.85395 | 15063 ft | 240 kts | 107° |
| 2026-04-18 02:09 | 27.51565 | 85.87206 | 15056 ft | 241 kts | 102° |
| 2026-04-18 02:10 | 27.51230 | 85.89053 | 15057 ft | 240 kts | 97° |
| 2026-04-18 02:10 | 27.51029 | 85.90922 | 15060 ft | 240 kts | 92° |
| 2026-04-18 02:10 | 27.50954 | 85.92797 | 15059 ft | 240 kts | 89° |
| 2026-04-18 02:10 | 27.50896 | 85.94675 | 15051 ft | 239 kts | 90° |
| 2026-04-18 02:11 | 27.50823 | 85.96543 | 15055 ft | 239 kts | 90° |
| 2026-04-18 02:11 | 27.50749 | 85.98392 | 15057 ft | 238 kts | 90° |
| 2026-04-18 02:11 | 27.50683 | 86.00258 | 15059 ft | 239 kts | 90° |
| 2026-04-18 02:11 | 27.50613 | 86.02142 | 15064 ft | 240 kts | 90° |
| 2026-04-18 02:12 | 27.50540 | 86.04026 | 15058 ft | 240 kts | 90° |
| 2026-04-18 02:12 | 27.50472 | 86.05894 | 15054 ft | 238 kts | 90° |
| 2026-04-18 02:12 | 27.50400 | 86.07747 | 15062 ft | 237 kts | 90° |
| 2026-04-18 02:12 | 27.50329 | 86.09604 | 15060 ft | 238 kts | 90° |
| 2026-04-18 02:13 | 27.50260 | 86.11468 | 15061 ft | 239 kts | 90° |
| 2026-04-18 02:13 | 27.50189 | 86.13316 | 15060 ft | 239 kts | 90° |
| 2026-04-18 02:13 | 27.50117 | 86.15189 | 15064 ft | 239 kts | 90° |
| 2026-04-18 02:13 | 27.50045 | 86.17061 | 15064 ft | 240 kts | 90° |
| 2026-04-18 02:14 | 27.49973 | 86.18934 | 15090 ft | 237 kts | 91° |
| 2026-04-18 02:14 | 27.49901 | 86.20778 | 15091 ft | 235 kts | 91° |
| 2026-04-18 02:14 | 27.49830 | 86.22610 | 15090 ft | 232 kts | 91° |
| 2026-04-18 02:14 | 27.49759 | 86.24426 | 15075 ft | 231 kts | 91° |
| 2026-04-18 02:15 | 27.49687 | 86.26226 | 15076 ft | 229 kts | 91° |
| 2026-04-18 02:15 | 27.49397 | 86.27980 | 15073 ft | 227 kts | 105° |
| 2026-04-18 02:15 | 27.49001 | 86.29689 | 15085 ft | 230 kts | 103° |
| 2026-04-18 02:15 | 27.48604 | 86.31466 | 15078 ft | 235 kts | 103° |
| 2026-04-18 02:16 | 27.48205 | 86.33253 | 15081 ft | 234 kts | 103° |
| 2026-04-18 02:16 | 27.47802 | 86.35032 | 15100 ft | 234 kts | 103° |
| 2026-04-18 02:16 | 27.47397 | 86.36814 | 15097 ft | 234 kts | 103° |
| 2026-04-18 02:16 | 27.46995 | 86.38584 | 15098 ft | 233 kts | 103° |
| 2026-04-18 02:17 | 27.46599 | 86.40329 | 15100 ft | 233 kts | 103° |
| 2026-04-18 02:17 | 27.46199 | 86.42094 | 15090 ft | 231 kts | 104° |
| 2026-04-18 02:17 | 27.45803 | 86.43839 | 15101 ft | 230 kts | 103° |
| 2026-04-18 02:17 | 27.45406 | 86.45592 | 15097 ft | 232 kts | 104° |
| 2026-04-18 02:18 | 27.45012 | 86.47316 | 15040 ft | 217 kts | 103° |
| 2026-04-18 02:18 | 27.44647 | 86.48922 | 14856 ft | 207 kts | 103° |
| 2026-04-18 02:18 | 27.44291 | 86.50485 | 14691 ft | 205 kts | 103° |
| 2026-04-18 02:18 | 27.43938 | 86.52030 | 14524 ft | 202 kts | 103° |
| 2026-04-18 02:19 | 27.43591 | 86.53565 | 14357 ft | 203 kts | 103° |
| 2026-04-18 02:19 | 27.43241 | 86.55101 | 14197 ft | 202 kts | 103° |
| 2026-04-18 02:19 | 27.42889 | 86.56641 | 13971 ft | 208 kts | 103° |
| 2026-04-18 02:19 | 27.42528 | 86.58222 | 13826 ft | 210 kts | 103° |
| 2026-04-18 02:20 | 27.42165 | 86.59815 | 13648 ft | 210 kts | 103° |
| 2026-04-18 02:20 | 27.41901 | 86.61409 | 13463 ft | 205 kts | 87° |
| 2026-04-18 02:20 | 27.42126 | 86.62968 | 13289 ft | 199 kts | 65° |
| 2026-04-18 02:20 | 27.42783 | 86.64302 | 13115 ft | 190 kts | 43° |
| 2026-04-18 02:21 | 27.43739 | 86.65267 | 13000 ft | 182 kts | 30° |
| 2026-04-18 02:21 | 27.44892 | 86.65834 | 12825 ft | 180 kts | 14° |
| 2026-04-18 02:21 | 27.46113 | 86.66122 | 12652 ft | 178 kts | 9° |
| 2026-04-18 02:21 | 27.47318 | 86.66377 | 12481 ft | 179 kts | 9° |
| 2026-04-18 02:22 | 27.48543 | 86.66631 | 12315 ft | 179 kts | 9° |
| 2026-04-18 02:22 | 27.49769 | 86.66887 | 12149 ft | 179 kts | 9° |
| 2026-04-18 02:22 | 27.51001 | 86.67150 | 11929 ft | 180 kts | 9° |
| 2026-04-18 02:22 | 27.52235 | 86.67405 | 11696 ft | 181 kts | 9° |
| 2026-04-18 02:23 | 27.53055 | 86.67577 | 11538 ft | 181 kts | 9° |
| 2026-04-18 02:23 | 27.54291 | 86.67829 | 11297 ft | 180 kts | 8° |
| 2026-04-18 02:23 | 27.55521 | 86.68083 | 11106 ft | 179 kts | 9° |
| 2026-04-18 02:23 | 27.57171 | 86.68419 | 10803 ft | 183 kts | 9° |
| 2026-04-18 02:24 | 27.58018 | 86.68594 | 10647 ft | 184 kts | 9° |
| 2026-04-18 02:24 | 27.59279 | 86.68852 | 10417 ft | 184 kts | 9° |
| 2026-04-18 02:24 | 27.60531 | 86.69103 | 10285 ft | 178 kts | 9° |
| 2026-04-18 02:24 | 27.61718 | 86.69341 | 10270 ft | 169 kts | 9° |
| 2026-04-18 02:25 | 27.62855 | 86.69568 | 10271 ft | 167 kts | 9° |
| 2026-04-18 02:25 | 27.64000 | 86.69799 | 10278 ft | 158 kts | 9° |
| 2026-04-18 02:25 | 27.64997 | 86.69998 | 10290 ft | 137 kts | 8° |
| 2026-04-18 02:25 | 27.65927 | 86.70198 | 10268 ft | 137 kts | 8° |
| 2026-04-18 02:26 | 27.66843 | 86.70395 | 10254 ft | 133 kts | 11° |
| 2026-04-18 02:26 | 27.67653 | 86.70829 | 10124 ft | 119 kts | 47° |
| 2026-04-18 02:26 | 27.67995 | 86.71662 | 9729 ft | 122 kts | 63° |
| 2026-04-18 02:26 | 27.68456 | 86.72461 | 9250 ft | 120 kts | 62° |
| 2026-04-18 02:27 | 27.68628 | 86.72919 | 9295 ft | 0 kts | 131° |
| 2026-04-18 02:28 | 30.11259 | 31.40803 | 360 ft | 0 kts | 319° |
| 2026-04-18 02:29 | 30.11261 | 31.40801 | 354 ft | 0 kts | 320° |
| 2026-04-18 02:29 | 27.66477 | 86.70313 | 10287 ft | 110 kts | 10° |
| 2026-04-18 02:30 | 27.66721 | 86.70365 | 10007 ft | 99 kts | 10° |
| 2026-04-18 02:30 | 27.67692 | 86.70610 | 8672 ft | 165 kts | 13° |
| 2026-04-18 02:30 | 27.68187 | 86.71303 | 8815 ft | 96 kts | 78° |
| 2026-04-18 02:31 | 27.68606 | 86.71732 | 9033 ft | 79 kts | 56° |
| 2026-04-18 02:31 | 27.68592 | 86.72066 | 8444 ft | 0 kts | 235° |